Time;durP1;ratioP1;P1;durP2;ratioP2;P2;SDS_P1;SDS_P2;PMS_P1;PMS_P2;Temp;Humidity;BMP_temperature;BMP_pressure;BME280_temperature;BME280_humidity;BME280_pressure;Samples;Min_cycle;Max_cycle;Signal;HPM_P1;HPM_P2
2021/08/11 00:02:19;;;;;;;6.28;3.27;;;;;;;21.79;63.48;99522.45;1690648;83;20954;-73
2021/08/11 00:04:45;;;;;;;3.02;2.72;;;;;;;21.82;63.16;99523.75;1709642;82;28952;-72
2021/08/11 00:07:11;;;;;;;2.95;2.75;;;;;;;21.80;63.18;99520.52;1727985;82;21291;-74
2021/08/11 00:09:38;;;;;;;3.02;2.80;;;;;;;21.72;63.28;99520.24;1699439;81;20977;-71
2021/08/11 00:12:08;;;;;;;6.53;3.10;;;;;;;21.71;63.37;99511.78;1753002;81;21735;-80
2021/08/11 00:14:36;;;;;;;3.15;2.95;;;;;;;21.74;63.23;99528.91;1728365;81;21572;-83
2021/08/11 00:17:04;;;;;;;3.30;2.87;;;;;;;21.74;63.12;99516.59;1735329;82;20984;-78
2021/08/11 00:19:32;;;;;;;3.37;3.17;;;;;;;21.74;63.06;99518.52;1736804;82;20968;-76
2021/08/11 00:21:59;;;;;;;4.20;3.90;;;;;;;21.73;62.95;99517.72;1730948;82;21009;-77
2021/08/11 00:24:26;;;;;;;3.58;3.02;;;;;;;21.74;62.95;99520.70;1707850;82;20992;-76
2021/08/11 00:26:53;;;;;;;4.00;3.65;;;;;;;21.71;62.97;99521.37;1709245;82;21052;-74
2021/08/11 00:29:19;;;;;;;2.80;2.60;;;;;;;21.68;63.02;99520.63;1679227;85;21035;-73
2021/08/11 00:31:47;;;;;;;3.17;2.87;;;;;;;21.63;63.19;99521.41;1708700;82;22687;-76
2021/08/11 00:34:13;;;;;;;2.92;2.72;;;;;;;21.58;63.31;99521.58;1735407;81;20988;-74
2021/08/11 00:36:40;;;;;;;5.90;2.95;;;;;;;21.54;63.46;99521.41;1757015;81;21051;-73
2021/08/11 00:39:07;;;;;;;4.20;3.27;;;;;;;21.50;63.58;99525.92;1760920;81;21016;-73
2021/08/11 00:41:34;;;;;;;3.22;2.92;;;;;;;21.46;63.81;99518.69;1751329;81;21512;-75
2021/08/11 00:44:01;;;;;;;3.33;3.05;;;;;;;21.41;64.01;99518.30;1721200;81;21540;-73
2021/08/11 00:46:29;;;;;;;3.40;3.10;;;;;;;21.37;64.15;99508.34;1692566;82;20976;-76
2021/08/11 00:48:56;;;;;;;3.42;3.00;;;;;;;21.31;64.32;99506.33;1677928;85;21504;-74
2021/08/11 00:51:24;;;;;;;4.03;3.72;;;;;;;21.27;64.63;99506.75;1677741;85;21289;-74
2021/08/11 00:53:52;;;;;;;4.97;4.58;;;;;;;21.19;64.82;99509.75;1709386;82;21032;-74
2021/08/11 00:56:21;;;;;;;6.53;4.10;;;;;;;21.14;64.98;99500.34;1757532;81;21200;-73
2021/08/11 00:58:47;;;;;;;3.40;3.08;;;;;;;21.10;65.21;99501.29;1765573;81;20978;-73
2021/08/11 01:01:15;;;;;;;3.50;3.20;;;;;;;21.07;65.45;99504.09;1708450;82;21551;-73
2021/08/11 01:03:42;;;;;;;3.45;3.15;;;;;;;21.03;65.83;99506.43;1714750;83;21032;-73
2021/08/11 01:06:09;;;;;;;4.10;3.65;;;;;;;21.00;66.07;99501.62;1714026;82;21102;-71
2021/08/11 01:08:37;;;;;;;5.28;3.40;;;;;;;20.96;66.31;99508.27;1707795;84;21118;-78
2021/08/11 01:11:04;;;;;;;3.77;3.47;;;;;;;20.90;66.70;99500.02;1707885;83;20963;-77
2021/08/11 01:13:32;;;;;;;3.50;3.30;;;;;;;20.85;66.82;99507.82;1708495;83;20944;-73
2021/08/11 01:15:59;;;;;;;13.20;4.45;;;;;;;20.80;67.17;99507.98;1721579;82;21060;-81
2021/08/11 01:18:28;;;;;;;4.65;2.98;;;;;;;20.77;67.33;99500.41;1712251;82;20992;-82
2021/08/11 01:21:12;;;;;;;3.60;3.30;;;;;;;20.77;67.47;99498.23;1702499;83;21061;-80
2021/08/11 01:24:03;;;;;;;5.62;3.20;;;;;;;20.77;67.62;99484.56;1720540;83;21060;-75
2021/08/11 01:27:07;;;;;;;4.08;3.67;;;;;;;20.74;67.77;99489.31;1712547;82;21026;-71
2021/08/11 01:30:01;;;;;;;4.53;3.20;;;;;;;20.71;68.05;99493.51;1682857;84;21046;-73
2021/08/11 01:32:40;;;;;;;8.03;3.62;;;;;;;20.70;68.07;99490.53;1704998;83;21013;-75
2021/08/11 01:35:09;;;;;;;3.90;3.60;;;;;;;20.68;68.34;99494.13;1690002;81;21815;-81
2021/08/11 01:37:35;;;;;;;5.83;3.92;;;;;;;20.66;68.45;99494.23;1712886;83;21640;-78
2021/08/11 01:40:02;;;;;;;4.05;3.58;;;;;;;20.64;68.46;99489.63;1714824;81;21555;-78
2021/08/11 01:42:36;;;;;;;3.47;3.12;;;;;;;20.60;68.69;99496.87;1723190;81;20965;-81
2021/08/11 01:45:12;;;;;;;4.40;4.00;;;;;;;20.61;68.74;99494.38;1705576;81;21094;-78
2021/08/11 01:47:52;;;;;;;4.15;3.75;;;;;;;20.53;69.47;99487.77;1723947;81;21612;-76
2021/08/11 01:50:19;;;;;;;4.25;3.85;;;;;;;20.45;69.87;99483.11;1712075;82;21064;-77
2021/08/11 01:52:47;;;;;;;4.87;3.77;;;;;;;20.43;70.14;99489.47;1734050;82;20925;-80
2021/08/11 01:55:15;;;;;;;3.65;3.35;;;;;;;20.51;69.87;99496.06;1735162;81;21060;-80
2021/08/11 01:57:48;;;;;;;3.58;3.27;;;;;;;20.53;69.79;99493.83;1734426;82;21017;-75
2021/08/11 02:00:16;;;;;;;4.85;3.33;;;;;;;20.51;70.02;99498.23;1706842;81;21046;-77
2021/08/11 02:02:42;;;;;;;4.92;3.75;;;;;;;20.51;70.30;99502.33;1732884;82;21541;-77
2021/08/11 02:05:12;;;;;;;4.12;3.47;;;;;;;20.50;70.63;99502.64;1741791;81;21516;-77
2021/08/11 02:07:41;;;;;;;5.72;4.12;;;;;;;20.51;70.62;99505.06;1739240;81;21500;-76
2021/08/11 02:10:11;;;;;;;4.58;4.17;;;;;;;20.47;71.10;99504.66;1714678;82;21065;-77
2021/08/11 02:12:37;;;;;;;5.08;3.70;;;;;;;20.43;71.44;99499.03;1688174;83;21146;-77
2021/08/11 02:15:07;;;;;;;5.42;4.92;;;;;;;20.41;71.76;99495.80;1713678;83;20980;-75
2021/08/11 02:17:37;;;;;;;4.15;3.72;;;;;;;20.37;71.92;99496.20;1722423;82;21000;-75
2021/08/11 02:20:06;;;;;;;4.17;3.47;;;;;;;20.30;72.33;99510.85;1722543;82;21036;-75
2021/08/11 02:22:34;;;;;;;4.62;3.60;;;;;;;20.38;71.98;99512.84;1713952;82;21553;-75
2021/08/11 02:25:08;;;;;;;3.83;3.42;;;;;;;20.40;72.04;99508.66;1713244;83;21089;-74
2021/08/11 02:27:43;;;;;;;4.85;4.35;;;;;;;20.37;72.20;99512.59;1713350;83;20936;-75
2021/08/11 02:30:13;;;;;;;4.65;3.90;;;;;;;20.34;72.54;99519.48;1683785;84;21096;-75
2021/08/11 02:32:56;;;;;;;4.95;3.95;;;;;;;20.33;72.59;99517.09;1710898;83;21016;-75
2021/08/11 02:35:40;;;;;;;5.15;4.00;;;;;;;20.34;72.92;99524.95;1719440;82;21077;-75
2021/08/11 02:38:17;;;;;;;6.03;5.42;;;;;;;20.34;72.92;99524.95;1712473;83;21298;-76
2021/08/11 02:41:12;;;;;;;4.75;3.95;;;;;;;20.39;72.66;99514.44;1712371;83;20989;-75
2021/08/11 02:43:53;;;;;;;4.33;3.87;;;;;;;20.44;72.68;99525.20;1693562;83;20993;-77
2021/08/11 02:46:24;;;;;;;4.87;4.25;;;;;;;20.33;73.47;99520.63;1718257;83;21087;-76
2021/08/11 02:48:59;;;;;;;5.20;4.15;;;;;;;20.15;74.44;99511.30;1709959;83;21001;-77
2021/08/11 02:51:30;;;;;;;4.17;3.75;;;;;;;20.09;75.15;99513.95;1712555;83;21041;-77
2021/08/11 02:54:02;;;;;;;4.70;4.20;;;;;;;20.07;75.50;99517.54;1692693;83;25071;-76
2021/08/11 02:56:32;;;;;;;4.10;3.72;;;;;;;20.19;75.16;99524.58;1719076;83;21331;-76
2021/08/11 02:59:01;;;;;;;4.33;3.90;;;;;;;20.24;74.92;99523.84;1717960;82;21061;-76
2021/08/11 03:01:30;;;;;;;4.97;3.52;;;;;;;20.20;75.25;99526.17;1712601;83;21033;-76
2021/08/11 03:03:58;;;;;;;3.70;3.40;;;;;;;20.21;75.29;99534.61;1693670;83;21028;-75
2021/08/11 03:06:25;;;;;;;4.15;3.75;;;;;;;20.28;75.34;99530.87;1718637;82;20972;-75
2021/08/11 03:08:53;;;;;;;4.62;3.90;;;;;;;20.28;75.34;99530.87;1694095;83;21090;-75
2021/08/11 03:11:20;;;;;;;4.90;4.05;;;;;;;20.33;75.23;99526.09;1712453;82;21673;-75
2021/08/11 03:13:47;;;;;;;3.75;3.45;;;;;;;20.39;74.93;99522.63;1735294;81;20994;-73
2021/08/11 03:16:14;;;;;;;4.17;3.62;;;;;;;20.39;74.93;99522.63;1748515;81;22254;-73
2021/08/11 03:18:41;;;;;;;6.33;3.87;;;;;;;20.43;75.49;99524.41;1712640;82;21013;-73
2021/08/11 03:21:08;;;;;;;4.72;4.15;;;;;;;20.43;75.49;99524.41;1735443;81;21560;-73
2021/08/11 03:23:35;;;;;;;3.92;3.62;;;;;;;20.49;75.13;99524.25;1734735;82;20941;-74
2021/08/11 03:26:02;;;;;;;6.90;4.17;;;;;;;20.53;74.94;99521.92;1712184;82;20930;-73
2021/08/11 03:28:29;;;;;;;4.92;4.42;;;;;;;20.55;74.75;99531.98;1732728;82;21037;-73
2021/08/11 03:30:56;;;;;;;4.22;3.83;;;;;;;20.54;74.99;99533.11;1704500;82;20997;-74
2021/08/11 03:33:23;;;;;;;4.40;4.00;;;;;;;20.52;74.77;99538.10;1733396;81;21443;-73
2021/08/11 03:35:50;;;;;;;4.15;3.05;;;;;;;20.50;74.90;99534.88;1756697;81;20940;-73
2021/08/11 03:38:17;;;;;;;5.28;3.80;;;;;;;20.53;74.93;99534.81;1740141;81;21549;-72
2021/08/11 03:40:45;;;;;;;4.78;4.28;;;;;;;20.53;74.92;99527.39;1730686;82;20999;-74
2021/08/11 03:43:12;;;;;;;4.62;3.90;;;;;;;20.46;75.46;99527.08;1730745;82;21085;-73
2021/08/11 03:45:42;;;;;;;5.83;4.87;;;;;;;20.27;76.49;99532.80;1735092;82;21486;-73
2021/08/11 03:48:09;;;;;;;4.25;3.62;;;;;;;20.19;76.76;99539.60;1709567;82;21081;-73
2021/08/11 03:50:37;;;;;;;4.67;3.52;;;;;;;20.24;76.56;99529.90;1706096;82;21033;-73
2021/08/11 03:53:03;;;;;;;5.45;4.62;;;;;;;20.27;76.47;99536.89;1704352;84;21034;-72
2021/08/11 03:55:32;;;;;;;4.78;3.98;;;;;;;20.33;76.55;99544.41;1681799;84;21478;-75
2021/08/11 03:57:59;;;;;;;5.20;4.70;;;;;;;20.33;76.55;99544.41;1706697;82;21072;-74
2021/08/11 04:00:26;;;;;;;6.03;4.58;;;;;;;20.35;76.31;99538.05;1727035;82;20965;-72
2021/08/11 04:02:52;;;;;;;5.80;4.05;;;;;;;20.38;76.24;99531.97;1751774;81;20992;-75
2021/08/11 04:05:18;;;;;;;6.40;4.20;;;;;;;20.41;76.16;99529.40;1735274;82;21023;-74
2021/08/11 04:07:46;;;;;;;4.72;4.08;;;;;;;20.48;76.10;99527.55;1734790;82;21481;-74
2021/08/11 04:10:13;;;;;;;9.78;4.35;;;;;;;20.58;75.87;99523.14;1726835;81;21528;-74
2021/08/11 04:12:39;;;;;;;4.37;3.98;;;;;;;20.67;75.47;99531.38;1697768;82;21009;-76
2021/08/11 04:15:05;;;;;;;6.25;4.47;;;;;;;20.72;75.21;99529.26;1735439;81;21005;-75
2021/08/11 04:17:31;;;;;;;5.35;4.15;;;;;;;20.76;75.10;99531.62;1734995;81;21729;-75
2021/08/11 04:19:57;;;;;;;4.75;4.33;;;;;;;20.77;74.99;99524.20;1721169;82;21589;-75
2021/08/11 04:22:25;;;;;;;5.03;4.53;;;;;;;20.79;75.11;99529.59;1735357;82;21014;-75
2021/08/11 04:24:52;;;;;;;6.20;4.28;;;;;;;20.77;75.34;99523.64;1712293;82;21057;-76
2021/08/11 04:27:18;;;;;;;4.60;4.20;;;;;;;20.74;75.90;99515.28;1735367;82;21024;-76
2021/08/11 04:29:44;;;;;;;4.67;4.28;;;;;;;20.65;76.50;99517.21;1720317;82;21058;-76
2021/08/11 04:32:10;;;;;;;6.20;4.70;;;;;;;20.67;76.59;99510.88;1705443;83;20949;-75
2021/08/11 04:34:37;;;;;;;5.25;4.75;;;;;;;20.73;76.29;99517.20;1705697;83;21005;-75
2021/08/11 04:37:05;;;;;;;4.47;4.08;;;;;;;20.74;76.50;99519.38;1710755;82;21020;-76
2021/08/11 04:39:31;;;;;;;7.83;4.15;;;;;;;20.78;76.68;99517.61;1723846;82;20830;-76
2021/08/11 04:41:57;;;;;;;5.72;4.35;;;;;;;20.84;76.87;99525.91;1734903;82;21151;-76
2021/08/11 04:44:23;;;;;;;7.80;5.05;;;;;;;20.90;76.79;99523.26;1736911;82;20914;-75
2021/08/11 04:46:49;;;;;;;4.67;4.25;;;;;;;21.01;76.79;99533.28;1713319;82;20921;-76
2021/08/11 04:49:16;;;;;;;7.85;4.28;;;;;;;21.11;76.60;99521.45;1727819;82;21005;-75
2021/08/11 04:51:42;;;;;;;5.42;4.45;;;;;;;21.25;76.21;99527.58;1705762;83;21060;-76
2021/08/11 04:54:08;;;;;;;5.15;4.65;;;;;;;21.38;75.74;99528.55;1705425;83;21195;-75
2021/08/11 04:56:34;;;;;;;4.55;4.17;;;;;;;21.50;75.46;99519.64;1682888;84;21548;-75
2021/08/11 04:59:09;;;;;;;5.03;4.15;;;;;;;21.63;75.05;99523.55;1678982;84;21448;-80
2021/08/11 05:01:38;;;;;;;6.72;4.20;;;;;;;21.75;74.56;99521.51;1735793;82;21455;-75
2021/08/11 05:04:06;;;;;;;5.17;4.42;;;;;;;21.85;74.06;99520.34;1712419;82;21020;-74
2021/08/11 05:06:33;;;;;;;10.03;4.53;;;;;;;21.90;73.74;99521.53;1711915;82;21112;-74
2021/08/11 05:08:59;;;;;;;6.45;5.50;;;;;;;21.85;73.79;99522.52;1708236;82;21055;-75
2021/08/11 05:11:25;;;;;;;4.42;4.03;;;;;;;21.66;74.35;99522.91;1681845;84;20999;-74
2021/08/11 05:13:51;;;;;;;5.87;4.28;;;;;;;21.63;74.71;99521.41;1682187;84;21704;-75
2021/08/11 05:16:17;;;;;;;4.45;3.65;;;;;;;21.70;74.43;99515.64;1733076;82;20961;-75
2021/08/11 05:18:44;;;;;;;8.78;4.72;;;;;;;21.72;74.50;99516.70;1735079;82;21883;-75
2021/08/11 05:21:10;;;;;;;5.28;4.67;;;;;;;21.73;74.78;99521.02;1735434;80;21466;-75
2021/08/11 05:23:36;;;;;;;4.50;4.10;;;;;;;21.75;74.84;99516.03;1735281;82;21005;-75
2021/08/11 05:26:02;;;;;;;6.25;5.65;;;;;;;21.78;74.93;99522.20;1735541;82;21521;-76
2021/08/11 05:28:28;;;;;;;9.78;4.35;;;;;;;21.82;74.84;99514.97;1711924;82;20942;-75
2021/08/11 05:30:55;;;;;;;4.92;4.40;;;;;;;21.91;74.66;99517.66;1707688;82;21114;-74
2021/08/11 05:33:21;;;;;;;5.03;4.50;;;;;;;21.99;74.41;99520.39;1677573;85;21560;-75
2021/08/11 05:35:47;;;;;;;5.65;4.95;;;;;;;22.10;74.19;99512.05;1677637;85;21511;-74
2021/08/11 05:38:13;;;;;;;5.83;4.65;;;;;;;22.21;73.76;99513.82;1735215;82;21538;-75
2021/08/11 05:40:40;;;;;;;8.83;4.90;;;;;;;22.31;73.49;99501.67;1704845;80;20898;-75
2021/08/11 05:43:06;;;;;;;6.75;5.12;;;;;;;22.40;73.19;99501.05;1704208;84;21070;-75
2021/08/11 05:45:32;;;;;;;5.20;4.00;;;;;;;22.50;72.83;99499.28;1704344;84;21521;-75
2021/08/11 05:47:58;;;;;;;7.58;4.35;;;;;;;22.60;72.54;99503.01;1712985;82;21037;-75
2021/08/11 05:50:24;;;;;;;5.12;4.20;;;;;;;22.68;72.23;99500.79;1685865;83;21173;-75
2021/08/11 05:52:51;;;;;;;6.05;5.45;;;;;;;22.71;72.32;99494.66;1704487;84;21587;-75
2021/08/11 05:55:17;;;;;;;6.92;5.80;;;;;;;22.67;72.45;99494.26;1682144;84;21001;-75
2021/08/11 05:57:43;;;;;;;5.03;4.53;;;;;;;22.69;72.71;99490.59;1704081;84;20939;-75
2021/08/11 06:00:10;;;;;;;12.30;4.35;;;;;;;22.77;72.27;99482.36;1709016;82;20992;-76
2021/08/11 06:02:40;;;;;;;5.45;4.47;;;;;;;22.79;72.40;99494.34;1700300;82;20969;-76
2021/08/11 06:05:11;;;;;;;4.28;3.87;;;;;;;22.79;72.16;99495.14;1733666;82;20993;-76
2021/08/11 06:07:39;;;;;;;5.42;4.67;;;;;;;22.80;72.14;99491.27;1682976;84;21064;-75
2021/08/11 06:10:06;;;;;;;6.75;4.45;;;;;;;22.81;71.95;99485.22;1706947;84;21503;-75
2021/08/11 06:12:32;;;;;;;10.75;5.45;;;;;;;22.86;71.96;99485.02;1706053;82;21516;-75
2021/08/11 06:14:58;;;;;;;9.53;4.33;;;;;;;22.93;71.99;99482.52;1705973;83;20955;-74
2021/08/11 06:17:25;;;;;;;5.95;4.30;;;;;;;23.01;71.79;99487.14;1683319;84;21043;-75
2021/08/11 06:19:51;;;;;;;4.37;3.98;;;;;;;23.12;71.22;99479.30;1683209;84;21960;-75
2021/08/11 06:22:18;;;;;;;10.65;4.90;;;;;;;23.24;70.63;99477.95;1730804;83;20973;-75
2021/08/11 06:24:44;;;;;;;4.55;4.15;;;;;;;23.36;70.25;99482.08;1730712;81;20988;-75
2021/08/11 06:27:11;;;;;;;4.78;4.37;;;;;;;23.45;69.67;99487.73;1730360;81;21022;-74
2021/08/11 06:29:37;;;;;;;8.20;6.62;;;;;;;23.54;69.05;99482.17;1716431;81;20985;-75
2021/08/11 06:32:05;;;;;;;4.80;4.40;;;;;;;23.58;68.97;99483.66;1730708;82;21128;-74
2021/08/11 06:34:32;;;;;;;4.67;4.33;;;;;;;23.58;68.79;99474.86;1681411;83;21439;-75
2021/08/11 06:36:59;;;;;;;5.65;3.67;;;;;;;23.60;69.16;99486.28;1700273;84;21009;-75
2021/08/11 06:39:25;;;;;;;3.77;3.50;;;;;;;23.69;68.75;99475.99;1700025;84;20945;-74
2021/08/11 06:41:51;;;;;;;4.08;3.67;;;;;;;23.73;68.79;99483.00;1679506;84;21099;-75
2021/08/11 06:44:20;;;;;;;4.10;3.80;;;;;;;23.74;68.75;99478.52;1683012;84;21146;-75
2021/08/11 06:46:46;;;;;;;5.20;3.52;;;;;;;23.79;68.64;99480.23;1656376;84;20959;-75
2021/08/11 06:49:14;;;;;;;4.83;4.45;;;;;;;23.86;68.41;99512.07;1675813;85;21153;-74
2021/08/11 06:51:40;;;;;;;3.95;3.65;;;;;;;23.92;67.89;99480.49;1709784;82;21034;-75
2021/08/11 06:54:10;;;;;;;3.90;3.60;;;;;;;23.99;67.30;99489.52;1730796;82;21001;-76
2021/08/11 06:56:35;;;;;;;4.55;4.00;;;;;;;24.02;66.50;99487.47;1731150;81;21831;-75
2021/08/11 06:59:01;;;;;;;9.90;5.67;;;;;;;24.04;66.33;99494.21;1759363;81;20958;-75
2021/08/11 07:01:28;;;;;;;7.62;4.40;;;;;;;24.01;65.81;99501.78;1730802;82;21057;-76
2021/08/11 07:03:54;;;;;;;5.87;3.52;;;;;;;24.07;66.70;99496.86;1712055;82;21011;-76
2021/08/11 07:06:21;;;;;;;5.20;3.50;;;;;;;24.13;65.99;99494.09;1700037;83;21498;-75
2021/08/11 07:08:48;;;;;;;4.05;3.62;;;;;;;24.19;65.28;99501.80;1700132;83;21156;-76
2021/08/11 07:11:14;;;;;;;6.42;3.58;;;;;;;24.26;64.88;99497.11;1703068;82;20957;-74
2021/08/11 07:13:41;;;;;;;3.92;3.62;;;;;;;24.25;63.73;99503.17;1708393;82;21449;-74
2021/08/11 07:16:07;;;;;;;7.67;3.30;;;;;;;24.30;63.66;99478.77;1681902;84;21017;-74
2021/08/11 07:18:34;;;;;;;6.95;3.62;;;;;;;24.38;63.52;99483.33;1706866;82;20922;-75
2021/08/11 07:21:01;;;;;;;3.83;3.47;;;;;;;24.44;63.64;99509.45;1735283;82;21499;-75
2021/08/11 07:23:27;;;;;;;5.60;4.45;;;;;;;24.49;63.64;99487.22;1726337;82;20961;-74
2021/08/11 07:25:54;;;;;;;6.58;3.62;;;;;;;24.55;63.50;99479.53;1704328;83;22161;-74
2021/08/11 07:28:20;;;;;;;6.78;3.72;;;;;;;24.62;62.20;99477.78;1681995;84;21013;-75
2021/08/11 07:30:47;;;;;;;7.20;4.25;;;;;;;24.69;61.42;99483.50;1721028;82;21450;-75
2021/08/11 07:33:13;;;;;;;3.25;2.92;;;;;;;24.72;61.22;99480.61;1755060;81;21105;-76
2021/08/11 07:35:39;;;;;;;5.53;3.33;;;;;;;24.78;60.02;99482.55;1735055;81;21000;-75
2021/08/11 07:38:06;;;;;;;3.85;3.55;;;;;;;24.86;60.93;99478.84;1735179;82;21652;-77
2021/08/11 07:40:33;;;;;;;3.45;3.15;;;;;;;24.91;60.47;99480.80;1735088;82;20970;-75
2021/08/11 07:43:00;;;;;;;7.03;3.60;;;;;;;24.94;59.71;99471.84;1735564;82;21106;-75
2021/08/11 07:45:29;;;;;;;3.62;3.10;;;;;;;24.98;60.24;99483.77;1754692;81;21048;-75
2021/08/11 07:47:54;;;;;;;3.40;3.10;;;;;;;25.04;59.28;99476.03;1742732;81;21033;-77
2021/08/11 07:50:24;;;;;;;4.00;3.33;;;;;;;25.10;58.97;99490.58;1710458;81;21080;-75
2021/08/11 07:52:50;;;;;;;5.78;3.65;;;;;;;25.14;56.47;99499.73;1654020;84;21039;-75
2021/08/11 07:55:17;;;;;;;3.37;3.17;;;;;;;25.16;56.46;99474.62;1694533;84;21583;-76
2021/08/11 07:57:43;;;;;;;2.90;2.70;;;;;;;25.21;56.80;99480.44;1689043;84;21057;-74
2021/08/11 08:00:11;;;;;;;3.37;2.83;;;;;;;25.26;56.10;99495.33;1712088;82;20953;-76
2021/08/11 08:02:40;;;;;;;6.15;3.12;;;;;;;25.32;55.48;99483.72;1735428;82;21517;-76
2021/08/11 08:05:08;;;;;;;3.02;2.77;;;;;;;25.37;55.04;99478.53;1734449;82;21026;-75
2021/08/11 08:07:34;;;;;;;3.12;2.80;;;;;;;25.40;53.21;99495.14;1734530;82;20993;-75
2021/08/11 08:10:02;;;;;;;5.00;2.87;;;;;;;25.40;51.63;99470.35;1717202;82;21265;-76
2021/08/11 08:12:29;;;;;;;3.45;2.90;;;;;;;25.43;51.49;99475.72;1735143;82;21050;-78
2021/08/11 08:14:55;;;;;;;5.15;2.40;;;;;;;25.43;50.77;99474.34;1699861;82;21521;-75
2021/08/11 08:17:21;;;;;;;3.83;2.70;;;;;;;25.48;50.98;99474.88;1711977;82;21072;-74
2021/08/11 08:19:48;;;;;;;3.60;3.30;;;;;;;25.56;50.30;99482.20;1712363;82;21017;-74
2021/08/11 08:22:17;;;;;;;3.45;2.80;;;;;;;25.65;50.75;99472.98;1735284;82;21564;-75
2021/08/11 08:24:44;;;;;;;4.62;3.12;;;;;;;25.71;50.71;99470.19;1712228;82;21517;-74
2021/08/11 08:27:10;;;;;;;2.52;2.33;;;;;;;25.77;50.71;99477.81;1735174;82;20965;-74
2021/08/11 08:29:37;;;;;;;5.12;2.85;;;;;;;25.86;51.34;99469.36;1711235;82;21048;-75
2021/08/11 08:32:04;;;;;;;4.22;3.70;;;;;;;25.94;51.42;99462.88;1709464;82;21084;-74
2021/08/11 08:34:31;;;;;;;3.25;3.02;;;;;;;25.98;51.44;99467.31;1711151;82;21476;-74
2021/08/11 08:36:57;;;;;;;6.05;4.05;;;;;;;26.05;51.18;99470.22;1715608;82;20984;-75
2021/08/11 08:39:23;;;;;;;3.83;2.27;;;;;;;26.14;51.56;99460.37;1736886;82;20918;-73
2021/08/11 08:41:50;;;;;;;4.20;2.92;;;;;;;26.21;51.54;99458.38;1735250;82;20993;-75
2021/08/11 08:44:16;;;;;;;9.15;2.98;;;;;;;26.26;50.11;99454.79;1733488;82;20978;-74
2021/08/11 08:46:43;;;;;;;5.50;2.67;;;;;;;26.28;49.11;99441.42;1709737;82;21126;-73
2021/08/11 08:49:10;;;;;;;6.40;3.42;;;;;;;26.31;48.67;99446.23;1706140;84;21590;-78
2021/08/11 08:51:44;;;;;;;2.70;2.50;;;;;;;26.36;47.93;99447.91;1693220;82;21012;-78
2021/08/11 08:54:12;;;;;;;2.90;2.70;;;;;;;26.37;46.36;99460.55;1731077;82;20961;-81
2021/08/11 08:56:39;;;;;;;2.25;2.05;;;;;;;26.37;45.91;99455.03;1732866;81;21506;-77
2021/08/11 08:59:06;;;;;;;2.45;2.25;;;;;;;26.40;47.36;99455.68;1716053;82;21098;-79
2021/08/11 09:01:34;;;;;;;2.65;2.08;;;;;;;26.44;46.77;99449.08;1734428;82;20922;-74
2021/08/11 09:04:01;;;;;;;4.90;2.85;;;;;;;26.47;46.36;99453.86;1734491;82;20993;-73
2021/08/11 09:06:34;;;;;;;2.62;2.35;;;;;;;26.52;45.88;99453.38;1723437;82;21025;-74
2021/08/11 09:09:07;;;;;;;3.25;2.77;;;;;;;26.57;46.00;99440.08;1710230;82;21068;-75
2021/08/11 09:11:35;;;;;;;2.37;2.17;;;;;;;26.66;45.65;99439.89;1717516;81;21074;-74
2021/08/11 09:14:27;;;;;;;3.87;2.20;;;;;;;26.76;45.88;99449.73;1683610;83;21054;-74
2021/08/11 09:16:57;;;;;;;2.72;2.52;;;;;;;26.80;45.23;99436.03;1658000;84;21080;-73
2021/08/11 09:19:23;;;;;;;3.15;2.55;;;;;;;26.86;45.00;99442.28;1660845;86;21044;-86
2021/08/11 09:22:09;;;;;;;2.60;2.40;;;;;;;26.90;43.95;99439.63;1648489;86;20981;-78
2021/08/11 09:24:37;;;;;;;3.27;2.42;;;;;;;26.95;44.14;99433.80;1661103;85;21112;-80
2021/08/11 09:27:25;;;;;;;4.80;2.47;;;;;;;27.04;43.61;99419.19;1693933;83;21014;-77
2021/08/11 09:30:07;;;;;;;3.02;2.58;;;;;;;27.12;44.49;99429.77;1712896;83;20950;-75
2021/08/11 09:33:00;;;;;;;2.90;2.55;;;;;;;27.13;43.93;99423.09;1703893;83;21014;-76
2021/08/11 09:35:33;;;;;;;3.92;2.10;;;;;;;27.16;43.88;99440.29;1737661;81;21537;-73
2021/08/11 09:38:06;;;;;;;3.00;2.70;;;;;;;27.17;42.14;99428.09;1720833;82;21047;-76
2021/08/11 09:40:37;;;;;;;3.27;2.72;;;;;;;27.17;42.14;99428.09;1687502;83;21363;-75
2021/08/11 09:43:08;;;;;;;4.55;2.83;;;;;;;27.17;43.89;99419.80;1711113;83;21001;-83
2021/08/11 09:45:51;;;;;;;4.05;3.75;;;;;;;27.20;44.63;99412.16;1712513;83;21050;-72
2021/08/11 09:48:21;;;;;;;2.77;2.58;;;;;;;27.18;44.76;99434.63;1711087;83;21507;-76
2021/08/11 09:51:07;;;;;;;3.98;3.05;;;;;;;27.20;44.70;99432.86;1711021;83;21387;-77
2021/08/11 09:53:41;;;;;;;3.30;2.70;;;;;;;27.22;45.29;99427.78;1690977;83;21598;-76
2021/08/11 09:56:09;;;;;;;5.83;2.37;;;;;;;27.20;45.58;99424.58;1695639;83;21495;-75
2021/08/11 09:58:46;;;;;;;5.80;3.12;;;;;;;27.24;45.78;99426.84;1712054;82;20982;-76
2021/08/11 10:01:18;;;;;;;3.85;2.62;;;;;;;27.33;45.21;99435.69;1742975;82;21077;-75
2021/08/11 10:04:00;;;;;;;7.20;3.43;;;;;;;27.43;43.48;99451.66;1712702;82;21049;-75
2021/08/11 10:06:35;;;;;;;3.90;3.15;;;;;;;27.45;44.15;99436.87;1712610;83;20934;-79
2021/08/11 10:09:24;;;;;;;3.95;2.12;;;;;;;27.42;40.08;99452.81;1707565;83;21524;-76
2021/08/11 10:11:54;;;;;;;2.92;2.40;;;;;;;27.38;39.20;99438.15;1712761;83;21155;-75
2021/08/11 10:14:29;;;;;;;3.10;2.80;;;;;;;27.40;41.04;99419.22;1712459;83;21178;-71
2021/08/11 10:16:59;;;;;;;6.47;2.77;;;;;;;27.44;41.53;99418.70;1694115;83;21226;-74
2021/08/11 10:19:28;;;;;;;4.00;2.90;;;;;;;27.49;41.28;99428.09;1696812;83;20899;-75
2021/08/11 10:22:05;;;;;;;2.52;2.33;;;;;;;27.54;41.78;99427.78;1674686;84;21548;-70
2021/08/11 10:24:32;;;;;;;3.60;3.08;;;;;;;27.59;41.54;99423.33;1651323;85;21071;-75
2021/08/11 10:26:58;;;;;;;2.85;2.35;;;;;;;27.60;41.36;99425.52;1661885;85;21594;-73
2021/08/11 10:29:25;;;;;;;3.22;2.75;;;;;;;27.63;41.15;99444.10;1652408;85;21017;-73
2021/08/11 10:31:53;;;;;;;4.35;3.47;;;;;;;27.63;41.30;99411.74;1671053;85;21583;-71
2021/08/11 10:34:20;;;;;;;3.37;3.02;;;;;;;27.63;41.51;99411.74;1674552;85;21059;-71
2021/08/11 10:36:47;;;;;;;3.52;3.22;;;;;;;27.62;41.14;99414.32;1674197;85;21072;-70
2021/08/11 10:39:16;;;;;;;9.68;3.37;;;;;;;27.59;41.51;99399.04;1674328;85;21135;-72
2021/08/11 10:41:43;;;;;;;8.48;4.10;;;;;;;27.75;41.67;99412.14;1656178;85;21102;-72
2021/08/11 10:44:21;;;;;;;5.72;3.42;;;;;;;27.84;41.06;99418.20;1650875;85;21007;-73
2021/08/11 10:46:58;;;;;;;3.25;2.95;;;;;;;27.87;40.90;99411.91;1671160;84;20968;-78
2021/08/11 10:49:28;;;;;;;2.75;2.55;;;;;;;27.96;40.05;99402.00;1712745;83;22177;-78
2021/08/11 10:52:09;;;;;;;4.42;4.00;;;;;;;28.04;39.85;99393.42;1740825;82;21012;-78
2021/08/11 10:54:58;;;;;;;11.75;8.30;;;;;;;28.25;39.62;99412.91;1694366;83;21288;-77
2021/08/11 10:57:42;;;;;;;4.05;3.58;;;;;;;28.40;38.98;99397.48;1653450;85;21097;-78
2021/08/11 11:00:22;;;;;;;2.60;2.40;;;;;;;28.46;38.42;99409.82;1675159;85;20996;-77
2021/08/11 11:02:51;;;;;;;4.58;3.45;;;;;;;28.55;38.30;99393.72;1653784;85;21085;-79
2021/08/11 11:05:27;;;;;;;2.75;2.55;;;;;;;28.67;37.99;99396.04;1653792;85;20971;-80
2021/08/11 11:08:15;;;;;;;3.10;2.90;;;;;;;28.77;37.79;99401.73;1675287;85;21151;-79
2021/08/11 11:10:46;;;;;;;2.95;2.67;;;;;;;28.83;37.58;99411.86;1674214;84;20997;-79
2021/08/11 11:13:31;;;;;;;3.50;2.95;;;;;;;28.61;37.04;99388.07;1710474;82;21088;-77
2021/08/11 11:16:01;;;;;;;3.35;2.70;;;;;;;28.51;35.44;99395.66;1755989;81;21014;-79
2021/08/11 11:18:27;;;;;;;6.90;2.80;;;;;;;28.60;36.44;99396.74;1713017;82;21036;-72
2021/08/11 11:21:02;;;;;;;3.75;3.30;;;;;;;28.70;37.01;99389.73;1677658;85;21514;-74
2021/08/11 11:23:38;;;;;;;3.85;2.40;;;;;;;28.79;36.87;99384.73;1681944;84;21063;-79
2021/08/11 11:26:10;;;;;;;2.60;2.40;;;;;;;28.87;35.34;99394.11;1677511;85;21008;-78
2021/08/11 11:29:09;;;;;;;3.02;2.62;;;;;;;28.89;36.17;99386.81;1733995;82;20957;-78
